sensor_id;sensor_type;location;lat;lon;timestamp;temperature;humidity
32947;DHT22;54465;51.230;22.504;2022-10-28T00:02:22;11.00;99.90
32947;DHT22;54465;51.230;22.504;2022-10-28T00:05:26;10.90;99.90
32947;DHT22;54465;51.230;22.504;2022-10-28T00:08:31;10.90;99.90
32947;DHT22;54465;51.230;22.504;2022-10-28T00:11:34;10.90;99.90
32947;DHT22;54465;51.230;22.504;2022-10-28T00:14:37;10.90;99.90
32947;DHT22;54465;51.230;22.504;2022-10-28T00:17:39;10.90;99.90
32947;DHT22;54465;51.230;22.504;2022-10-28T00:20:41;10.80;99.90
32947;DHT22;54465;51.230;22.504;2022-10-28T00:23:45;10.80;99.90
32947;DHT22;54465;51.230;22.504;2022-10-28T00:26:48;10.80;99.90
32947;DHT22;54465;51.230;22.504;2022-10-28T00:29:52;10.80;99.90
32947;DHT22;54465;51.230;22.504;2022-10-28T00:32:54;10.70;99.90
32947;DHT22;54465;51.230;22.504;2022-10-28T00:36:06;10.70;99.90
32947;DHT22;54465;51.230;22.504;2022-10-28T00:39:12;10.70;99.90
32947;DHT22;54465;51.230;22.504;2022-10-28T00:42:20;10.70;99.90
32947;DHT22;54465;51.230;22.504;2022-10-28T00:45:23;10.70;99.90
32947;DHT22;54465;51.230;22.504;2022-10-28T00:48:27;10.80;99.90
32947;DHT22;54465;51.230;22.504;2022-10-28T00:51:32;10.70;99.90
32947;DHT22;54465;51.230;22.504;2022-10-28T00:54:42;10.70;99.90
32947;DHT22;54465;51.230;22.504;2022-10-28T00:57:47;10.70;99.90
32947;DHT22;54465;51.230;22.504;2022-10-28T01:00:50;10.70;99.90
32947;DHT22;54465;51.230;22.504;2022-10-28T01:03:55;10.80;99.90
32947;DHT22;54465;51.230;22.504;2022-10-28T01:07:01;10.70;99.90
32947;DHT22;54465;51.230;22.504;2022-10-28T01:10:07;10.70;99.90
32947;DHT22;54465;51.230;22.504;2022-10-28T01:13:17;10.70;99.90
32947;DHT22;54465;51.230;22.504;2022-10-28T01:16:28;10.70;99.90
32947;DHT22;54465;51.230;22.504;2022-10-28T01:23:13;10.80;99.90
32947;DHT22;54465;51.230;22.504;2022-10-28T01:30:09;10.70;99.90
32947;DHT22;54465;51.230;22.504;2022-10-28T01:33:22;10.70;99.90
32947;DHT22;54465;51.230;22.504;2022-10-28T01:36:34;10.80;99.90
32947;DHT22;54465;51.230;22.504;2022-10-28T01:39:44;10.80;99.90
32947;DHT22;54465;51.230;22.504;2022-10-28T01:42:53;10.80;99.90
32947;DHT22;54465;51.230;22.504;2022-10-28T01:46:00;10.70;99.90
32947;DHT22;54465;51.230;22.504;2022-10-28T01:49:11;10.70;99.90
32947;DHT22;54465;51.230;22.504;2022-10-28T01:52:21;10.80;99.90
32947;DHT22;54465;51.230;22.504;2022-10-28T01:55:29;10.80;99.90
32947;DHT22;54465;51.230;22.504;2022-10-28T01:58:37;10.80;99.90
32947;DHT22;54465;51.230;22.504;2022-10-28T02:01:41;10.70;99.90
32947;DHT22;54465;51.230;22.504;2022-10-28T02:04:45;10.80;99.90
32947;DHT22;54465;51.230;22.504;2022-10-28T02:07:50;10.80;99.90
32947;DHT22;54465;51.230;22.504;2022-10-28T02:11:04;10.80;99.90
32947;DHT22;54465;51.230;22.504;2022-10-28T02:14:22;10.80;99.90
32947;DHT22;54465;51.230;22.504;2022-10-28T02:17:34;10.80;99.90
32947;DHT22;54465;51.230;22.504;2022-10-28T02:20:46;10.80;99.90
32947;DHT22;54465;51.230;22.504;2022-10-28T02:23:54;10.80;99.90
32947;DHT22;54465;51.230;22.504;2022-10-28T02:27:02;10.80;99.90
32947;DHT22;54465;51.230;22.504;2022-10-28T02:30:10;10.70;99.90
32947;DHT22;54465;51.230;22.504;2022-10-28T02:33:18;10.80;99.90
32947;DHT22;54465;51.230;22.504;2022-10-28T02:36:24;10.70;99.90
32947;DHT22;54465;51.230;22.504;2022-10-28T02:39:34;10.70;99.90
32947;DHT22;54465;51.230;22.504;2022-10-28T02:42:42;10.70;99.90
32947;DHT22;54465;51.230;22.504;2022-10-28T02:45:47;10.70;99.90
32947;DHT22;54465;51.230;22.504;2022-10-28T02:48:53;10.70;99.90
32947;DHT22;54465;51.230;22.504;2022-10-28T02:52:02;10.60;99.90
32947;DHT22;54465;51.230;22.504;2022-10-28T02:55:07;10.60;99.90
32947;DHT22;54465;51.230;22.504;2022-10-28T02:58:10;10.60;99.90
32947;DHT22;54465;51.230;22.504;2022-10-28T03:01:13;10.70;99.90
32947;DHT22;54465;51.230;22.504;2022-10-28T03:04:16;10.60;99.90
32947;DHT22;54465;51.230;22.504;2022-10-28T03:07:20;10.70;99.90
32947;DHT22;54465;51.230;22.504;2022-10-28T03:10:23;10.70;99.90
32947;DHT22;54465;51.230;22.504;2022-10-28T03:13:26;10.60;99.90
32947;DHT22;54465;51.230;22.504;2022-10-28T03:16:29;10.60;99.90
32947;DHT22;54465;51.230;22.504;2022-10-28T03:19:32;10.60;99.90
32947;DHT22;54465;51.230;22.504;2022-10-28T03:22:36;10.50;99.90
32947;DHT22;54465;51.230;22.504;2022-10-28T03:25:39;10.50;99.90
32947;DHT22;54465;51.230;22.504;2022-10-28T03:28:42;10.40;99.90
32947;DHT22;54465;51.230;22.504;2022-10-28T03:31:44;10.40;99.90
32947;DHT22;54465;51.230;22.504;2022-10-28T03:34:47;10.30;99.90
32947;DHT22;54465;51.230;22.504;2022-10-28T03:37:52;10.30;99.90
32947;DHT22;54465;51.230;22.504;2022-10-28T03:40:54;10.20;99.90
32947;DHT22;54465;51.230;22.504;2022-10-28T03:43:57;10.20;99.90
32947;DHT22;54465;51.230;22.504;2022-10-28T03:47:01;10.10;99.90
32947;DHT22;54465;51.230;22.504;2022-10-28T03:50:05;10.20;99.90
32947;DHT22;54465;51.230;22.504;2022-10-28T03:53:10;10.10;99.90
32947;DHT22;54465;51.230;22.504;2022-10-28T03:56:12;10.00;99.90
32947;DHT22;54465;51.230;22.504;2022-10-28T03:59:15;9.90;99.90
32947;DHT22;54465;51.230;22.504;2022-10-28T04:02:18;9.90;99.90
32947;DHT22;54465;51.230;22.504;2022-10-28T04:05:21;9.90;99.90
32947;DHT22;54465;51.230;22.504;2022-10-28T04:08:25;9.80;99.90
32947;DHT22;54465;51.230;22.504;2022-10-28T04:11:27;9.90;99.90
32947;DHT22;54465;51.230;22.504;2022-10-28T04:14:30;9.80;99.90
32947;DHT22;54465;51.230;22.504;2022-10-28T04:17:33;9.80;99.90
32947;DHT22;54465;51.230;22.504;2022-10-28T04:20:35;9.80;99.90
32947;DHT22;54465;51.230;22.504;2022-10-28T04:23:39;9.80;99.90
32947;DHT22;54465;51.230;22.504;2022-10-28T04:26:42;9.80;99.90
32947;DHT22;54465;51.230;22.504;2022-10-28T04:29:44;9.80;99.90
32947;DHT22;54465;51.230;22.504;2022-10-28T04:32:47;9.80;99.90
32947;DHT22;54465;51.230;22.504;2022-10-28T04:35:49;9.70;99.90
32947;DHT22;54465;51.230;22.504;2022-10-28T04:38:53;9.80;99.90
32947;DHT22;54465;51.230;22.504;2022-10-28T04:41:55;9.80;99.90
32947;DHT22;54465;51.230;22.504;2022-10-28T04:44:57;9.70;99.90
32947;DHT22;54465;51.230;22.504;2022-10-28T04:48:00;9.70;99.90
32947;DHT22;54465;51.230;22.504;2022-10-28T04:51:03;9.70;99.90
32947;DHT22;54465;51.230;22.504;2022-10-28T04:54:07;9.70;99.90
32947;DHT22;54465;51.230;22.504;2022-10-28T04:57:10;9.60;99.90
32947;DHT22;54465;51.230;22.504;2022-10-28T05:00:15;9.50;99.90
32947;DHT22;54465;51.230;22.504;2022-10-28T05:03:18;9.60;99.90
32947;DHT22;54465;51.230;22.504;2022-10-28T05:06:21;9.50;99.90
32947;DHT22;54465;51.230;22.504;2022-10-28T05:09:26;9.50;99.90
32947;DHT22;54465;51.230;22.504;2022-10-28T05:12:28;9.50;99.90
32947;DHT22;54465;51.230;22.504;2022-10-28T05:15:31;9.50;99.90
32947;DHT22;54465;51.230;22.504;2022-10-28T05:18:33;9.40;99.90
32947;DHT22;54465;51.230;22.504;2022-10-28T05:21:35;9.40;99.90
32947;DHT22;54465;51.230;22.504;2022-10-28T05:24:39;9.40;99.90
32947;DHT22;54465;51.230;22.504;2022-10-28T05:27:41;9.40;99.90
32947;DHT22;54465;51.230;22.504;2022-10-28T05:30:44;9.30;99.90
32947;DHT22;54465;51.230;22.504;2022-10-28T05:33:48;9.30;99.90
32947;DHT22;54465;51.230;22.504;2022-10-28T05:36:50;9.20;99.90
32947;DHT22;54465;51.230;22.504;2022-10-28T05:39:54;9.20;99.90
32947;DHT22;54465;51.230;22.504;2022-10-28T05:42:56;9.30;99.90
32947;DHT22;54465;51.230;22.504;2022-10-28T05:45:58;9.30;99.90
32947;DHT22;54465;51.230;22.504;2022-10-28T05:49:03;9.30;99.90
32947;DHT22;54465;51.230;22.504;2022-10-28T05:52:07;9.30;99.90
32947;DHT22;54465;51.230;22.504;2022-10-28T05:55:11;9.40;99.90
32947;DHT22;54465;51.230;22.504;2022-10-28T05:58:14;9.40;99.90
32947;DHT22;54465;51.230;22.504;2022-10-28T06:01:16;9.50;99.90
32947;DHT22;54465;51.230;22.504;2022-10-28T06:04:19;9.50;99.90
32947;DHT22;54465;51.230;22.504;2022-10-28T06:07:21;9.50;99.90
32947;DHT22;54465;51.230;22.504;2022-10-28T06:10:26;9.60;99.90
32947;DHT22;54465;51.230;22.504;2022-10-28T06:13:28;9.70;99.90
32947;DHT22;54465;51.230;22.504;2022-10-28T06:16:30;9.70;99.90
32947;DHT22;54465;51.230;22.504;2022-10-28T06:19:32;9.70;99.90
32947;DHT22;54465;51.230;22.504;2022-10-28T06:22:36;9.70;99.90
32947;DHT22;54465;51.230;22.504;2022-10-28T06:25:40;9.80;99.90
32947;DHT22;54465;51.230;22.504;2022-10-28T06:28:42;9.90;99.90
32947;DHT22;54465;51.230;22.504;2022-10-28T06:31:47;10.00;99.90
32947;DHT22;54465;51.230;22.504;2022-10-28T06:34:49;10.00;99.90
32947;DHT22;54465;51.230;22.504;2022-10-28T06:37:53;10.20;99.90
32947;DHT22;54465;51.230;22.504;2022-10-28T06:40:57;10.20;99.90
32947;DHT22;54465;51.230;22.504;2022-10-28T06:44:00;10.30;99.90
32947;DHT22;54465;51.230;22.504;2022-10-28T06:47:03;10.40;99.90
32947;DHT22;54465;51.230;22.504;2022-10-28T06:50:06;10.40;99.90
32947;DHT22;54465;51.230;22.504;2022-10-28T06:53:08;10.40;99.90
32947;DHT22;54465;51.230;22.504;2022-10-28T06:56:12;10.50;99.90
32947;DHT22;54465;51.230;22.504;2022-10-28T06:59:14;10.50;99.90
32947;DHT22;54465;51.230;22.504;2022-10-28T07:02:16;10.60;99.90
32947;DHT22;54465;51.230;22.504;2022-10-28T07:05:19;10.60;99.90
32947;DHT22;54465;51.230;22.504;2022-10-28T07:08:21;10.70;99.90
32947;DHT22;54465;51.230;22.504;2022-10-28T07:11:25;10.70;99.90
32947;DHT22;54465;51.230;22.504;2022-10-28T07:14:27;10.80;99.90
32947;DHT22;54465;51.230;22.504;2022-10-28T07:17:30;10.90;99.90
32947;DHT22;54465;51.230;22.504;2022-10-28T07:20:32;10.90;99.90
32947;DHT22;54465;51.230;22.504;2022-10-28T07:23:34;10.90;99.90
32947;DHT22;54465;51.230;22.504;2022-10-28T07:26:38;10.90;99.90
32947;DHT22;54465;51.230;22.504;2022-10-28T07:29:41;10.90;99.90
32947;DHT22;54465;51.230;22.504;2022-10-28T07:32:43;10.90;99.90
32947;DHT22;54465;51.230;22.504;2022-10-28T07:35:46;11.00;99.90
32947;DHT22;54465;51.230;22.504;2022-10-28T07:38:49;11.00;99.90
32947;DHT22;54465;51.230;22.504;2022-10-28T07:56:15;11.10;99.90
32947;DHT22;54465;51.230;22.504;2022-10-28T07:59:18;12.50;99.90
32947;DHT22;54465;51.230;22.504;2022-10-28T08:02:23;12.30;99.90
32947;DHT22;54465;51.230;22.504;2022-10-28T08:05:25;12.20;99.90
32947;DHT22;54465;51.230;22.504;2022-10-28T08:08:28;12.20;99.90
32947;DHT22;54465;51.230;22.504;2022-10-28T08:11:32;12.30;99.90
32947;DHT22;54465;51.230;22.504;2022-10-28T08:14:35;12.20;99.90
32947;DHT22;54465;51.230;22.504;2022-10-28T08:17:37;12.30;99.90
32947;DHT22;54465;51.230;22.504;2022-10-28T08:20:42;12.40;99.90
32947;DHT22;54465;51.230;22.504;2022-10-28T08:23:44;12.40;99.90
32947;DHT22;54465;51.230;22.504;2022-10-28T08:26:48;12.50;99.90
32947;DHT22;54465;51.230;22.504;2022-10-28T08:29:50;12.60;99.90
32947;DHT22;54465;51.230;22.504;2022-10-28T08:32:55;12.70;99.90
32947;DHT22;54465;51.230;22.504;2022-10-28T08:35:57;12.80;99.90
32947;DHT22;54465;51.230;22.504;2022-10-28T08:39:00;12.80;99.90
32947;DHT22;54465;51.230;22.504;2022-10-28T08:42:19;12.90;99.90
32947;DHT22;54465;51.230;22.504;2022-10-28T08:45:36;13.10;99.90
32947;DHT22;54465;51.230;22.504;2022-10-28T08:48:41;13.20;99.90
32947;DHT22;54465;51.230;22.504;2022-10-28T08:51:49;13.40;99.90
32947;DHT22;54465;51.230;22.504;2022-10-28T08:54:56;13.50;99.90
32947;DHT22;54465;51.230;22.504;2022-10-28T08:58:07;13.70;99.90
32947;DHT22;54465;51.230;22.504;2022-10-28T09:01:19;13.80;99.90
32947;DHT22;54465;51.230;22.504;2022-10-28T09:04:27;13.90;99.90
32947;DHT22;54465;51.230;22.504;2022-10-28T09:07:32;14.00;99.90
32947;DHT22;54465;51.230;22.504;2022-10-28T09:10:47;14.10;99.90
32947;DHT22;54465;51.230;22.504;2022-10-28T09:14:04;14.10;99.90
32947;DHT22;54465;51.230;22.504;2022-10-28T09:17:16;14.20;99.90
32947;DHT22;54465;51.230;22.504;2022-10-28T09:20:31;14.40;99.90
32947;DHT22;54465;51.230;22.504;2022-10-28T09:23:42;14.50;99.90
32947;DHT22;54465;51.230;22.504;2022-10-28T09:26:51;14.60;99.90
32947;DHT22;54465;51.230;22.504;2022-10-28T09:30:13;14.80;99.90
32947;DHT22;54465;51.230;22.504;2022-10-28T09:33:37;14.90;99.90
32947;DHT22;54465;51.230;22.504;2022-10-28T09:36:49;15.00;99.90
32947;DHT22;54465;51.230;22.504;2022-10-28T09:39:55;15.20;99.90
32947;DHT22;54465;51.230;22.504;2022-10-28T09:43:05;15.40;99.90
32947;DHT22;54465;51.230;22.504;2022-10-28T09:46:12;15.60;99.90
32947;DHT22;54465;51.230;22.504;2022-10-28T09:49:19;15.70;99.90
32947;DHT22;54465;51.230;22.504;2022-10-28T09:52:26;15.80;99.90
32947;DHT22;54465;51.230;22.504;2022-10-28T09:55:31;15.90;99.90
32947;DHT22;54465;51.230;22.504;2022-10-28T09:58:35;16.00;99.90
32947;DHT22;54465;51.230;22.504;2022-10-28T10:01:42;16.00;99.90
32947;DHT22;54465;51.230;22.504;2022-10-28T10:04:48;16.00;99.90
32947;DHT22;54465;51.230;22.504;2022-10-28T10:07:53;16.00;99.90
32947;DHT22;54465;51.230;22.504;2022-10-28T10:11:00;16.00;99.90
32947;DHT22;54465;51.230;22.504;2022-10-28T10:14:13;15.90;99.90
32947;DHT22;54465;51.230;22.504;2022-10-28T10:17:21;15.90;99.90
32947;DHT22;54465;51.230;22.504;2022-10-28T10:20:27;16.00;99.90
32947;DHT22;54465;51.230;22.504;2022-10-28T10:23:31;16.00;99.90
32947;DHT22;54465;51.230;22.504;2022-10-28T10:26:34;16.10;99.90
32947;DHT22;54465;51.230;22.504;2022-10-28T10:29:42;16.10;99.90
32947;DHT22;54465;51.230;22.504;2022-10-28T10:32:47;16.10;99.90
32947;DHT22;54465;51.230;22.504;2022-10-28T10:36:04;16.10;99.90
32947;DHT22;54465;51.230;22.504;2022-10-28T10:39:30;16.10;99.90
32947;DHT22;54465;51.230;22.504;2022-10-28T10:42:34;16.10;99.90
32947;DHT22;54465;51.230;22.504;2022-10-28T10:45:37;16.10;99.90
32947;DHT22;54465;51.230;22.504;2022-10-28T10:48:42;16.00;99.90
32947;DHT22;54465;51.230;22.504;2022-10-28T10:51:50;16.00;99.90
32947;DHT22;54465;51.230;22.504;2022-10-28T10:54:57;16.10;99.90
32947;DHT22;54465;51.230;22.504;2022-10-28T10:58:00;16.00;99.90
32947;DHT22;54465;51.230;22.504;2022-10-28T11:01:05;16.00;99.90
32947;DHT22;54465;51.230;22.504;2022-10-28T11:04:16;16.00;99.90
32947;DHT22;54465;51.230;22.504;2022-10-28T11:07:20;16.00;99.90
32947;DHT22;54465;51.230;22.504;2022-10-28T11:10:24;16.00;99.90
32947;DHT22;54465;51.230;22.504;2022-10-28T11:13:27;16.00;99.90
32947;DHT22;54465;51.230;22.504;2022-10-28T11:16:45;16.00;99.90
32947;DHT22;54465;51.230;22.504;2022-10-28T11:19:53;16.00;99.90
32947;DHT22;54465;51.230;22.504;2022-10-28T11:23:20;16.10;99.90
32947;DHT22;54465;51.230;22.504;2022-10-28T11:26:27;16.10;99.90
32947;DHT22;54465;51.230;22.504;2022-10-28T11:29:34;16.10;99.90
32947;DHT22;54465;51.230;22.504;2022-10-28T11:32:48;16.10;99.90
32947;DHT22;54465;51.230;22.504;2022-10-28T11:36:02;16.10;99.90
32947;DHT22;54465;51.230;22.504;2022-10-28T11:39:19;16.10;99.90
32947;DHT22;54465;51.230;22.504;2022-10-28T11:42:29;16.10;99.90
32947;DHT22;54465;51.230;22.504;2022-10-28T11:45:39;16.10;99.90
32947;DHT22;54465;51.230;22.504;2022-10-28T11:49:07;16.10;99.90
32947;DHT22;54465;51.230;22.504;2022-10-28T11:52:26;16.20;99.90
32947;DHT22;54465;51.230;22.504;2022-10-28T11:55:34;16.30;99.90
32947;DHT22;54465;51.230;22.504;2022-10-28T11:58:43;16.40;99.90
32947;DHT22;54465;51.230;22.504;2022-10-28T12:01:53;16.60;99.90
32947;DHT22;54465;51.230;22.504;2022-10-28T12:05:04;16.60;99.90
32947;DHT22;54465;51.230;22.504;2022-10-28T12:08:35;16.60;99.90
32947;DHT22;54465;51.230;22.504;2022-10-28T12:11:56;16.60;99.90
32947;DHT22;54465;51.230;22.504;2022-10-28T12:15:13;16.50;99.90
32947;DHT22;54465;51.230;22.504;2022-10-28T12:18:23;16.50;99.90
32947;DHT22;54465;51.230;22.504;2022-10-28T12:21:30;16.50;99.90
32947;DHT22;54465;51.230;22.504;2022-10-28T12:24:36;16.40;99.90
32947;DHT22;54465;51.230;22.504;2022-10-28T12:27:42;16.40;99.90
32947;DHT22;54465;51.230;22.504;2022-10-28T12:30:46;16.30;99.90
32947;DHT22;54465;51.230;22.504;2022-10-28T12:33:55;16.20;99.90
32947;DHT22;54465;51.230;22.504;2022-10-28T12:37:01;16.20;99.90
32947;DHT22;54465;51.230;22.504;2022-10-28T12:40:11;16.20;99.90
32947;DHT22;54465;51.230;22.504;2022-10-28T12:43:21;16.20;99.90
32947;DHT22;54465;51.230;22.504;2022-10-28T12:46:29;16.30;99.90
32947;DHT22;54465;51.230;22.504;2022-10-28T12:49:52;16.40;99.90
32947;DHT22;54465;51.230;22.504;2022-10-28T12:53:01;16.50;99.90
32947;DHT22;54465;51.230;22.504;2022-10-28T12:56:12;16.60;99.90
32947;DHT22;54465;51.230;22.504;2022-10-28T12:59:20;16.60;99.90
32947;DHT22;54465;51.230;22.504;2022-10-28T13:02:27;16.70;99.90
32947;DHT22;54465;51.230;22.504;2022-10-28T13:05:36;16.80;99.90
32947;DHT22;54465;51.230;22.504;2022-10-28T13:09:04;16.90;99.90
32947;DHT22;54465;51.230;22.504;2022-10-28T13:19:49;17.20;99.90
32947;DHT22;54465;51.230;22.504;2022-10-28T13:23:19;17.40;99.90
32947;DHT22;54465;51.230;22.504;2022-10-28T13:26:26;17.40;99.90
32947;DHT22;54465;51.230;22.504;2022-10-28T13:29:47;17.50;99.90
32947;DHT22;54465;51.230;22.504;2022-10-28T13:33:00;17.50;99.90
32947;DHT22;54465;51.230;22.504;2022-10-28T13:36:09;17.50;99.90
32947;DHT22;54465;51.230;22.504;2022-10-28T13:39:38;17.40;99.90
32947;DHT22;54465;51.230;22.504;2022-10-28T13:42:45;17.50;99.90
32947;DHT22;54465;51.230;22.504;2022-10-28T13:45:51;17.60;99.90
32947;DHT22;54465;51.230;22.504;2022-10-28T13:49:20;17.60;99.90
32947;DHT22;54465;51.230;22.504;2022-10-28T13:52:25;17.60;99.90
32947;DHT22;54465;51.230;22.504;2022-10-28T13:55:41;17.70;99.90
32947;DHT22;54465;51.230;22.504;2022-10-28T13:58:55;17.60;99.90
32947;DHT22;54465;51.230;22.504;2022-10-28T14:02:25;17.60;99.90
32947;DHT22;54465;51.230;22.504;2022-10-28T14:05:50;17.60;99.90
32947;DHT22;54465;51.230;22.504;2022-10-28T14:08:56;17.60;99.90
32947;DHT22;54465;51.230;22.504;2022-10-28T14:12:23;17.60;99.90
32947;DHT22;54465;51.230;22.504;2022-10-28T14:15:28;17.70;99.90
32947;DHT22;54465;51.230;22.504;2022-10-28T14:18:34;17.70;99.90
32947;DHT22;54465;51.230;22.504;2022-10-28T14:21:43;17.70;99.90
32947;DHT22;54465;51.230;22.504;2022-10-28T14:24:49;17.60;99.90
32947;DHT22;54465;51.230;22.504;2022-10-28T14:27:52;17.60;99.90
32947;DHT22;54465;51.230;22.504;2022-10-28T14:34:52;17.40;99.90
32947;DHT22;54465;51.230;22.504;2022-10-28T14:38:44;17.30;99.90
32947;DHT22;54465;51.230;22.504;2022-10-28T14:42:16;17.10;99.90
32947;DHT22;54465;51.230;22.504;2022-10-28T14:45:42;16.90;99.90
32947;DHT22;54465;51.230;22.504;2022-10-28T14:48:50;16.70;99.90
32947;DHT22;54465;51.230;22.504;2022-10-28T14:51:57;16.50;99.90
32947;DHT22;54465;51.230;22.504;2022-10-28T14:55:06;16.40;99.90
32947;DHT22;54465;51.230;22.504;2022-10-28T14:58:18;16.30;99.90
32947;DHT22;54465;51.230;22.504;2022-10-28T15:01:24;16.20;99.90
32947;DHT22;54465;51.230;22.504;2022-10-28T15:04:29;16.20;99.90
32947;DHT22;54465;51.230;22.504;2022-10-28T15:07:32;16.10;99.90
32947;DHT22;54465;51.230;22.504;2022-10-28T15:10:35;15.90;99.90
32947;DHT22;54465;51.230;22.504;2022-10-28T15:13:37;15.80;99.90
32947;DHT22;54465;51.230;22.504;2022-10-28T15:16:46;15.80;99.90
32947;DHT22;54465;51.230;22.504;2022-10-28T15:19:50;15.70;99.90
32947;DHT22;54465;51.230;22.504;2022-10-28T15:23:10;15.60;99.90
32947;DHT22;54465;51.230;22.504;2022-10-28T15:26:14;15.50;99.90
32947;DHT22;54465;51.230;22.504;2022-10-28T15:29:17;15.40;99.90
32947;DHT22;54465;51.230;22.504;2022-10-28T15:32:28;15.40;99.90
32947;DHT22;54465;51.230;22.504;2022-10-28T15:35:38;15.30;99.90
32947;DHT22;54465;51.230;22.504;2022-10-28T15:38:42;15.30;99.90
32947;DHT22;54465;51.230;22.504;2022-10-28T15:41:45;15.20;99.90
32947;DHT22;54465;51.230;22.504;2022-10-28T15:44:54;15.10;99.90
32947;DHT22;54465;51.230;22.504;2022-10-28T15:48:11;15.10;99.90
32947;DHT22;54465;51.230;22.504;2022-10-28T15:51:16;15.10;99.90
32947;DHT22;54465;51.230;22.504;2022-10-28T15:54:20;15.00;99.90
32947;DHT22;54465;51.230;22.504;2022-10-28T15:57:26;15.00;99.90
32947;DHT22;54465;51.230;22.504;2022-10-28T16:00:30;14.90;99.90
32947;DHT22;54465;51.230;22.504;2022-10-28T16:03:46;14.90;99.90
32947;DHT22;54465;51.230;22.504;2022-10-28T16:06:50;14.90;99.90
32947;DHT22;54465;51.230;22.504;2022-10-28T16:09:54;14.80;99.90
32947;DHT22;54465;51.230;22.504;2022-10-28T16:12:58;14.80;99.90
32947;DHT22;54465;51.230;22.504;2022-10-28T16:16:04;14.80;99.90
32947;DHT22;54465;51.230;22.504;2022-10-28T16:19:11;14.80;99.90
32947;DHT22;54465;51.230;22.504;2022-10-28T16:22:20;14.70;99.90
32947;DHT22;54465;51.230;22.504;2022-10-28T16:25:26;14.70;99.90
32947;DHT22;54465;51.230;22.504;2022-10-28T16:28:30;14.80;99.90
32947;DHT22;54465;51.230;22.504;2022-10-28T16:31:33;14.70;99.90
32947;DHT22;54465;51.230;22.504;2022-10-28T16:34:36;14.70;99.90
32947;DHT22;54465;51.230;22.504;2022-10-28T16:37:39;14.70;99.90
32947;DHT22;54465;51.230;22.504;2022-10-28T16:40:44;14.70;99.90
32947;DHT22;54465;51.230;22.504;2022-10-28T16:43:48;14.70;99.90
32947;DHT22;54465;51.230;22.504;2022-10-28T16:46:53;14.60;99.90
32947;DHT22;54465;51.230;22.504;2022-10-28T16:49:56;14.70;99.90
32947;DHT22;54465;51.230;22.504;2022-10-28T16:52:59;14.70;99.90
32947;DHT22;54465;51.230;22.504;2022-10-28T16:56:03;14.70;99.90
32947;DHT22;54465;51.230;22.504;2022-10-28T16:59:06;14.60;99.90
32947;DHT22;54465;51.230;22.504;2022-10-28T17:02:13;14.60;99.90
32947;DHT22;54465;51.230;22.504;2022-10-28T17:05:18;14.50;99.90
32947;DHT22;54465;51.230;22.504;2022-10-28T17:08:20;14.50;99.90
32947;DHT22;54465;51.230;22.504;2022-10-28T17:11:26;14.50;99.90
32947;DHT22;54465;51.230;22.504;2022-10-28T17:14:29;14.50;99.90
32947;DHT22;54465;51.230;22.504;2022-10-28T17:17:31;14.40;99.90
32947;DHT22;54465;51.230;22.504;2022-10-28T17:20:34;14.50;99.90
32947;DHT22;54465;51.230;22.504;2022-10-28T17:23:38;14.50;99.90
32947;DHT22;54465;51.230;22.504;2022-10-28T17:26:41;14.50;99.90
32947;DHT22;54465;51.230;22.504;2022-10-28T17:29:47;14.40;99.90
32947;DHT22;54465;51.230;22.504;2022-10-28T17:32:51;14.40;99.90
32947;DHT22;54465;51.230;22.504;2022-10-28T17:35:54;14.40;99.90
32947;DHT22;54465;51.230;22.504;2022-10-28T17:38:56;14.40;99.90
32947;DHT22;54465;51.230;22.504;2022-10-28T17:42:03;14.30;99.90
32947;DHT22;54465;51.230;22.504;2022-10-28T17:45:06;14.40;99.90
32947;DHT22;54465;51.230;22.504;2022-10-28T17:48:09;14.40;99.90
32947;DHT22;54465;51.230;22.504;2022-10-28T17:51:15;14.30;99.90
32947;DHT22;54465;51.230;22.504;2022-10-28T17:54:21;14.30;99.90
32947;DHT22;54465;51.230;22.504;2022-10-28T17:57:26;14.30;99.90
32947;DHT22;54465;51.230;22.504;2022-10-28T18:00:28;14.30;99.90
32947;DHT22;54465;51.230;22.504;2022-10-28T18:03:31;14.30;99.90
32947;DHT22;54465;51.230;22.504;2022-10-28T18:06:36;14.30;99.90
32947;DHT22;54465;51.230;22.504;2022-10-28T18:09:39;14.20;99.90
32947;DHT22;54465;51.230;22.504;2022-10-28T18:12:43;14.20;99.90
32947;DHT22;54465;51.230;22.504;2022-10-28T18:15:46;14.20;99.90
32947;DHT22;54465;51.230;22.504;2022-10-28T18:18:49;14.20;99.90
32947;DHT22;54465;51.230;22.504;2022-10-28T18:21:53;14.20;99.90
32947;DHT22;54465;51.230;22.504;2022-10-28T18:24:57;14.20;99.90
32947;DHT22;54465;51.230;22.504;2022-10-28T18:28:03;14.10;99.90
32947;DHT22;54465;51.230;22.504;2022-10-28T18:31:10;14.20;99.90
32947;DHT22;54465;51.230;22.504;2022-10-28T18:34:13;14.10;99.90
32947;DHT22;54465;51.230;22.504;2022-10-28T18:37:18;14.00;99.90
32947;DHT22;54465;51.230;22.504;2022-10-28T18:40:21;14.00;99.90
32947;DHT22;54465;51.230;22.504;2022-10-28T18:43:26;14.00;99.90
32947;DHT22;54465;51.230;22.504;2022-10-28T18:46:31;14.10;99.90
32947;DHT22;54465;51.230;22.504;2022-10-28T18:49:35;14.00;99.90
32947;DHT22;54465;51.230;22.504;2022-10-28T18:52:38;14.00;99.90
32947;DHT22;54465;51.230;22.504;2022-10-28T18:55:41;14.00;99.90
32947;DHT22;54465;51.230;22.504;2022-10-28T18:58:45;14.00;99.90
32947;DHT22;54465;51.230;22.504;2022-10-28T19:01:52;14.10;99.90
32947;DHT22;54465;51.230;22.504;2022-10-28T19:04:54;14.00;99.90
32947;DHT22;54465;51.230;22.504;2022-10-28T19:07:59;14.00;99.90
32947;DHT22;54465;51.230;22.504;2022-10-28T19:11:02;14.00;99.90
32947;DHT22;54465;51.230;22.504;2022-10-28T19:14:08;14.00;99.90
32947;DHT22;54465;51.230;22.504;2022-10-28T19:17:11;14.00;99.90
32947;DHT22;54465;51.230;22.504;2022-10-28T19:20:14;14.00;99.90
32947;DHT22;54465;51.230;22.504;2022-10-28T19:23:17;14.00;99.90
32947;DHT22;54465;51.230;22.504;2022-10-28T19:26:20;14.00;99.90
32947;DHT22;54465;51.230;22.504;2022-10-28T19:29:25;14.00;99.90
32947;DHT22;54465;51.230;22.504;2022-10-28T19:32:28;14.00;99.90
32947;DHT22;54465;51.230;22.504;2022-10-28T19:35:32;13.90;99.90
32947;DHT22;54465;51.230;22.504;2022-10-28T19:38:37;14.00;99.90
32947;DHT22;54465;51.230;22.504;2022-10-28T19:41:40;13.90;99.90
32947;DHT22;54465;51.230;22.504;2022-10-28T19:44:47;13.80;99.90
32947;DHT22;54465;51.230;22.504;2022-10-28T19:47:49;13.90;99.90
32947;DHT22;54465;51.230;22.504;2022-10-28T19:50:52;13.80;99.90
32947;DHT22;54465;51.230;22.504;2022-10-28T19:53:56;13.80;99.90
32947;DHT22;54465;51.230;22.504;2022-10-28T19:56:59;13.70;99.90